Quick Links (Output Below):   Max & Min Temps   /   Climate Reports   /   Zone Forecasts
River Forecasts   /   Forestry Forecasts   /   Aviation Forecasts   /   Radars   /   Features

Terminal Aerodrome Forecast (Pine Bluff)

Pick a Site:
Arkadelphia | El Dorado | Fayetteville | Fort Smith | Harrison | Highfill | Hot Springs | Jonesboro
Little Rock | Monticello | Mountain Home | Pine Bluff | Texarkana
 Forecast 

KPBF 292334Z 3000/3024 08006KT P6SM -RA SCT045 BKN100 OVC250
     FM300200 08003KT P6SM FEW050 SCT100 BKN250
     FM300900 VRB03KT 5SM BR FEW030 SCT100 BKN250
      TEMPO 3010/3014 2SM BR FEW005 BKN020
     FM301400 VRB03KT P6SM SCT250
     FM301700 10006KT P6SM SCT040 SCT250=


 Latest METARs (Observations) 
How to Decode METARs
01Z KPBF 300053Z AUTO 11006KT 10SM CLR 22/17 A3005 RMK AO2 SLP173
         T02170172
         
00Z KPBF 292353Z AUTO 07009KT 10SM CLR 22/18 A3008 RMK AO2 RAE23
         SLP184 P0001 60054 T02170178 10317 20194 50009
         
***** Today's Observations (Above) *****


23Z KPBF 292253Z AUTO 10004KT 9SM VCTS -RA FEW080 OVC100 20/18 A3012
         RMK AO2 LTG DSNT ALQDS TSE14 SLP198 P0009 T02000183
         
22Z KPBF 292153Z AUTO 27012G29KT 2SM +TSRA BR BKN027 BKN040 OVC048
         20/19 A3014 RMK AO2 PK WND 28034/2139 WSHFT 2123 LTG DSNT
         ALQDS RAB25 TSB25 PRESRR SLP205 P0044 T02000189
         
21Z KPBF 292053Z AUTO 00000KT 10SM CLR 31/21 A3005 RMK AO2 LTG DSNT
         SW-N SLP174 T03060211 58023
         
20Z KPBF 291953Z AUTO 14004KT 10SM FEW048 32/21 A3008 RMK AO2 SLP184
         T03170211
         
19Z KPBF 291853Z AUTO 00000KT 10SM CLR 30/21 A3010 RMK AO2 SLP188
         T03000206
         
18Z KPBF 291753Z AUTO 08004KT 10SM SCT033 BKN045 30/22 A3012 RMK AO2
         SLP197 T03000222 10300 20206 58005
         
17Z KPBF 291653Z AUTO 00000KT 10SM SCT035 BKN045 28/21 A3014 RMK AO2
         SLP202 T02830211
         
16Z KPBF 291553Z AUTO VRB03KT 10SM FEW035 28/21 A3013 RMK AO2 SLP200
         T02830206
         
***** Yesterday's Observations (Above) *****


Back to Main Page
http://www.srh.noaa.gov/lzk/qfcst.php

USA.gov is the U.S. government's official web portal to all federal, state and local government web resources and services.